Time;durP1;ratioP1;P1;durP2;ratioP2;P2;SDS_P1;SDS_P2;PMS_P1;PMS_P2;Temp;Humidity;BMP_temperature;BMP_pressure;BME280_temperature;BME280_humidity;BME280_pressure;Samples;Min_cycle;Max_cycle;Signal;HPM_P1;HPM_P2
2021/10/24 00:00:36;;;;;;;;;;;;;;;;;;5041513;28;19920;-82
2021/10/24 00:03:20;;;;;;;;;;;;;;;;;;5040409;28;19924;-80
2021/10/24 00:06:05;;;;;;;;;;;;;;;;;;5053668;28;19936;-81
2021/10/24 00:08:49;;;;;;;;;;;;;;;;;;5028258;28;20294;-80
2021/10/24 00:11:33;;;;;;;;;;;;;;;;;;5040738;28;19921;-80
2021/10/24 00:14:17;;;;;;;;;;;;;;;;;;5044862;28;20310;-81
2021/10/24 00:17:02;;;;;;;;;;;;;;;;;;5033353;28;20559;-80
2021/10/24 00:19:46;;;;;;;;;;;;;;;;;;5067203;28;19921;-80
2021/10/24 00:22:30;;;;;;;;;;;;;;;;;;5032055;28;20399;-80
2021/10/24 00:25:14;;;;;;;;;;;;;;;;;;5036011;28;19928;-80
2021/10/24 00:27:58;;;;;;;;;;;;;;;;;;5057027;28;19921;-80
2021/10/24 00:30:43;;;;;;;;;;;;;;;;;;5031156;28;19920;-80
2021/10/24 00:33:28;;;;;;;;;;;;;;;;;;5042862;28;19996;-80
2021/10/24 00:36:12;;;;;;;;;;;;;;;;;;5044940;28;20415;-81
2021/10/24 00:38:56;;;;;;;;;;;;;;;;;;5025901;28;19919;-80
2021/10/24 00:41:40;;;;;;;;;;;;;;;;;;5034425;28;19920;-79
2021/10/24 00:44:24;;;;;;;;;;;;;;;;;;5036167;28;19920;-78
2021/10/24 00:47:10;;;;;;;;;;;;;;;;;;5057862;28;19935;-79
2021/10/24 00:49:55;;;;;;;;;;;;;;;;;;5053709;28;20397;-79
2021/10/24 00:52:39;;;;;;;;;;;;;;;;;;5046679;28;20416;-79
2021/10/24 00:55:23;;;;;;;;;;;;;;;;;;5022619;28;20301;-79
2021/10/24 00:58:08;;;;;;;;;;;;;;;;;;5041626;28;20611;-79
2021/10/24 01:00:52;;;;;;;;;;;;;;;;;;5033330;28;19920;-79
2021/10/24 01:03:37;;;;;;;;;;;;;;;;;;5038283;28;19924;-79
2021/10/24 01:06:21;;;;;;;;;;;;;;;;;;5041723;28;19936;-79
2021/10/24 01:09:05;;;;;;;;;;;;;;;;;;5039343;28;20566;-80
2021/10/24 01:11:50;;;;;;;;;;;;;;;;;;5037436;28;19920;-78
2021/10/24 01:14:34;;;;;;;;;;;;;;;;;;5042242;28;19936;-81
2021/10/24 01:17:19;;;;;;;;;;;;;;;;;;5056355;28;19988;-80
2021/10/24 01:20:03;;;;;;;;;;;;;;;;;;5033861;28;20309;-80
2021/10/24 01:22:48;;;;;;;;;;;;;;;;;;5046493;28;20412;-81
2021/10/24 01:25:32;;;;;;;;;;;;;;;;;;5035249;28;19921;-79
2021/10/24 01:28:16;;;;;;;;;;;;;;;;;;5023423;28;19920;-79
2021/10/24 01:31:00;;;;;;;;;;;;;;;;;;5021177;28;19920;-78
2021/10/24 01:33:45;;;;;;;;;;;;;;;;;;5032253;28;19924;-79
2021/10/24 01:36:29;;;;;;;;;;;;;;;;;;5037858;28;19920;-78
2021/10/24 01:39:13;;;;;;;;;;;;;;;;;;5038705;28;20285;-80
2021/10/24 01:41:58;;;;;;;;;;;;;;;;;;5023993;28;20443;-78
2021/10/24 01:44:43;;;;;;;;;;;;;;;;;;5017290;28;20298;-78
2021/10/24 01:47:27;;;;;;;;;;;;;;;;;;5047302;28;19924;-77
2021/10/24 01:50:11;;;;;;;;;;;;;;;;;;5022229;28;19920;-79
2021/10/24 01:52:55;;;;;;;;;;;;;;;;;;5052391;28;19929;-78
2021/10/24 01:55:39;;;;;;;;;;;;;;;;;;5035163;28;19984;-80
2021/10/24 01:58:24;;;;;;;;;;;;;;;;;;5019453;28;19920;-80
2021/10/24 02:01:08;;;;;;;;;;;;;;;;;;5044062;28;19936;-79
2021/10/24 02:04:14;;;;;;;;;;;;;;;;;;5018698;28;19932;-78
2021/10/24 02:07:19;;;;;;;;;;;;;;;;;;5023518;28;19924;-79
2021/10/24 02:10:04;;;;;;;;;;;;;;;;;;5038177;28;19924;-79
2021/10/24 02:12:48;;;;;;;;;;;;;;;;;;5019813;28;19928;-80
2021/10/24 02:15:36;;;;;;;;;;;;;;;;;;5039650;28;19920;-79
2021/10/24 02:18:21;;;;;;;;;;;;;;;;;;5037098;28;19988;-80
2021/10/24 02:21:06;;;;;;;;;;;;;;;;;;5030729;28;19920;-82
2021/10/24 02:23:52;;;;;;;;;;;;;;;;;;5032819;28;19920;-81
2021/10/24 02:26:36;;;;;;;;;;;;;;;;;;5051916;28;19920;-81
2021/10/24 02:29:20;;;;;;;;;;;;;;;;;;5048951;28;19921;-82
2021/10/24 02:32:04;;;;;;;;;;;;;;;;;;5055252;28;20293;-80
2021/10/24 02:35:02;;;;;;;;;;;;;;;;;;5046202;28;19924;-81
2021/10/24 02:37:57;;;;;;;;;;;;;;;;;;5035647;28;19924;-81
2021/10/24 02:40:43;;;;;;;;;;;;;;;;;;5037547;28;19920;-81
2021/10/24 02:43:28;;;;;;;;;;;;;;;;;;5054569;28;19920;-81
2021/10/24 02:46:13;;;;;;;;;;;;;;;;;;5054183;28;19920;-79
2021/10/24 02:48:57;;;;;;;;;;;;;;;;;;5046976;28;19924;-80
2021/10/24 02:51:41;;;;;;;;;;;;;;;;;;5056266;28;20293;-79
2021/10/24 02:54:25;;;;;;;;;;;;;;;;;;5037546;28;20393;-79
2021/10/24 02:57:12;;;;;;;;;;;;;;;;;;5025704;28;20356;-80
2021/10/24 02:59:56;;;;;;;;;;;;;;;;;;5053158;28;20416;-80
2021/10/24 03:02:44;;;;;;;;;;;;;;;;;;5026463;28;19920;-80
2021/10/24 03:05:28;;;;;;;;;;;;;;;;;;5069980;22;19940;-66
2021/10/24 03:08:12;;;;;;;;;;;;;;;;;;5055899;28;19920;-66
2021/10/24 03:10:56;;;;;;;;;;;;;;;;;;5074089;28;19936;-66
2021/10/24 03:13:41;;;;;;;;;;;;;;;;;;5072247;28;19943;-66
2021/10/24 03:16:25;;;;;;;;;;;;;;;;;;5051167;28;19928;-66
2021/10/24 03:19:09;;;;;;;;;;;;;;;;;;5073332;28;19924;-65
2021/10/24 03:21:54;;;;;;;;;;;;;;;;;;5070392;28;19920;-66
2021/10/24 03:24:38;;;;;;;;;;;;;;;;;;5052272;28;19920;-66
2021/10/24 03:27:23;;;;;;;;;;;;;;;;;;5068481;28;19920;-66
2021/10/24 03:30:07;;;;;;;;;;;;;;;;;;5058531;28;19920;-66
2021/10/24 03:32:52;;;;;;;;;;;;;;;;;;5066556;28;19932;-66
2021/10/24 03:35:36;;;;;;;;;;;;;;;;;;5067173;28;19920;-66
2021/10/24 03:38:21;;;;;;;;;;;;;;;;;;5066325;28;19920;-66
2021/10/24 03:41:05;;;;;;;;;;;;;;;;;;5056672;28;19936;-66
2021/10/24 03:43:49;;;;;;;;;;;;;;;;;;5056323;28;19923;-66
2021/10/24 03:46:35;;;;;;;;;;;;;;;;;;5063218;28;19921;-66
2021/10/24 03:49:20;;;;;;;;;;;;;;;;;;5050261;28;19928;-66
2021/10/24 03:52:04;;;;;;;;;;;;;;;;;;5071941;28;19920;-66
2021/10/24 03:54:48;;;;;;;;;;;;;;;;;;5054465;28;20288;-66
2021/10/24 03:57:33;;;;;;;;;;;;;;;;;;5041375;28;19928;-66
2021/10/24 04:00:17;;;;;;;;;;;;;;;;;;5055232;28;19920;-65
2021/10/24 04:03:06;;;;;;;;;;;;;;;;;;5049726;28;19925;-65
2021/10/24 04:05:58;;;;;;;;;;;;;;;;;;5054481;28;19924;-65
2021/10/24 04:08:42;;;;;;;;;;;;;;;;;;5050536;28;19920;-65
2021/10/24 04:11:26;;;;;;;;;;;;;;;;;;5061497;28;19924;-65
2021/10/24 04:14:10;;;;;;;;;;;;;;;;;;5052691;28;19924;-65
2021/10/24 04:16:57;;;;;;;;;;;;;;;;;;5043859;28;19935;-65
2021/10/24 04:19:41;;;;;;;;;;;;;;;;;;5049641;28;19927;-65
2021/10/24 04:22:25;;;;;;;;;;;;;;;;;;5072141;28;19920;-66
2021/10/24 04:25:11;;;;;;;;;;;;;;;;;;5068493;28;19920;-66
2021/10/24 04:27:55;;;;;;;;;;;;;;;;;;5067748;28;19919;-66
2021/10/24 04:30:40;;;;;;;;;;;;;;;;;;5050568;28;19920;-67
2021/10/24 04:33:24;;;;;;;;;;;;;;;;;;5062379;28;19940;-66
2021/10/24 04:36:08;;;;;;;;;;;;;;;;;;5051633;28;19939;-67
2021/10/24 04:38:52;;;;;;;;;;;;;;;;;;5072140;28;19920;-67
2021/10/24 04:41:38;;;;;;;;;;;;;;;;;;5065960;28;19924;-66
2021/10/24 04:44:22;;;;;;;;;;;;;;;;;;5045662;28;19936;-66
2021/10/24 04:47:06;;;;;;;;;;;;;;;;;;5063934;28;19936;-66
2021/10/24 04:49:51;;;;;;;;;;;;;;;;;;5046750;28;19920;-66
2021/10/24 04:52:35;;;;;;;;;;;;;;;;;;5053076;28;21070;-66
2021/10/24 04:55:19;;;;;;;;;;;;;;;;;;5055905;28;19920;-66
2021/10/24 04:58:03;;;;;;;;;;;;;;;;;;5064471;28;20383;-66
2021/10/24 05:00:47;;;;;;;;;;;;;;;;;;5057173;28;19920;-65
2021/10/24 05:03:32;;;;;;;;;;;;;;;;;;5057589;28;19920;-65
2021/10/24 05:06:17;;;;;;;;;;;;;;;;;;5052112;28;19924;-65
2021/10/24 05:09:01;;;;;;;;;;;;;;;;;;5054334;28;19919;-65
2021/10/24 05:11:45;;;;;;;;;;;;;;;;;;5053212;28;19936;-65
2021/10/24 05:14:30;;;;;;;;;;;;;;;;;;5044726;28;19932;-65
2021/10/24 05:17:14;;;;;;;;;;;;;;;;;;5051059;28;19928;-65
2021/10/24 05:19:59;;;;;;;;;;;;;;;;;;5051290;28;19920;-65
2021/10/24 05:22:43;;;;;;;;;;;;;;;;;;5049090;28;19920;-64
2021/10/24 05:25:27;;;;;;;;;;;;;;;;;;5054437;28;19920;-64
2021/10/24 05:28:11;;;;;;;;;;;;;;;;;;5065200;28;19920;-64
2021/10/24 05:30:55;;;;;;;;;;;;;;;;;;5052575;28;20402;-64
2021/10/24 05:33:41;;;;;;;;;;;;;;;;;;5057923;28;19928;-65
2021/10/24 05:36:40;;;;;;;;;;;;;;;;;;5050105;28;19919;-65
2021/10/24 05:39:25;;;;;;;;;;;;;;;;;;5052831;28;19992;-64
2021/10/24 05:42:09;;;;;;;;;;;;;;;;;;5072356;28;19927;-64
2021/10/24 05:44:53;;;;;;;;;;;;;;;;;;5066012;28;20284;-64
2021/10/24 05:47:37;;;;;;;;;;;;;;;;;;5052584;28;19916;-64
2021/10/24 05:50:26;;;;;;;;;;;;;;;;;;5052454;28;20315;-64
2021/10/24 05:53:10;;;;;;;;;;;;;;;;;;5052265;28;20388;-63
2021/10/24 05:55:55;;;;;;;;;;;;;;;;;;5032615;28;20487;-64
2021/10/24 05:58:39;;;;;;;;;;;;;;;;;;5052416;28;19920;-64
2021/10/24 06:01:34;;;;;;;;;;;;;;;;;;5052138;28;19920;-64
2021/10/24 06:04:33;;;;;;;;;;;;;;;;;;5037802;28;19920;-64
2021/10/24 06:07:43;;;;;;;;;;;;;;;;;;5072216;28;19924;-64
2021/10/24 06:10:31;;;;;;;;;;;;;;;;;;5052714;28;19921;-64
2021/10/24 06:13:15;;;;;;;;;;;;;;;;;;5072096;28;20399;-64
2021/10/24 06:16:00;;;;;;;;;;;;;;;;;;5052395;28;19923;-64
2021/10/24 06:18:44;;;;;;;;;;;;;;;;;;5072266;28;19920;-64
2021/10/24 06:21:28;;;;;;;;;;;;;;;;;;5072079;28;20284;-64
2021/10/24 06:24:12;;;;;;;;;;;;;;;;;;5052254;28;19919;-64
2021/10/24 06:26:57;;;;;;;;;;;;;;;;;;5065816;28;20402;-64
2021/10/24 06:29:41;;;;;;;;;;;;;;;;;;5067494;28;19920;-64
2021/10/24 06:32:26;;;;;;;;;;;;;;;;;;5076173;28;19920;-64
2021/10/24 06:35:40;;;;;;;;;;;;;;;;;;5004846;28;19923;-64
2021/10/24 06:38:42;;;;;;;;;;;;;;;;;;5036583;28;20380;-64
2021/10/24 06:41:45;;;;;;;;;;;;;;;;;;5056022;28;19921;-64
2021/10/24 06:44:58;;;;;;;;;;;;;;;;;;5075053;28;19920;-64
2021/10/24 06:47:48;;;;;;;;;;;;;;;;;;5056004;28;20311;-64
2021/10/24 06:50:59;;;;;;;;;;;;;;;;;;5056146;28;19980;-64
2021/10/24 06:54:12;;;;;;;;;;;;;;;;;;5024236;28;20386;-64
2021/10/24 06:57:15;;;;;;;;;;;;;;;;;;5055940;28;19935;-64
2021/10/24 07:00:18;;;;;;;;;;;;;;;;;;5066636;28;19920;-64
2021/10/24 07:03:22;;;;;;;;;;;;;;;;;;5056174;28;19980;-64
2021/10/24 07:06:35;;;;;;;;;;;;;;;;;;5051980;28;19924;-64
2021/10/24 07:09:38;;;;;;;;;;;;;;;;;;5055735;28;20438;-64
2021/10/24 07:12:23;;;;;;;;;;;;;;;;;;5075502;28;19919;-64
2021/10/24 07:15:07;;;;;;;;;;;;;;;;;;5055522;28;19934;-64
2021/10/24 07:17:52;;;;;;;;;;;;;;;;;;5075387;28;19919;-64
2021/10/24 07:20:36;;;;;;;;;;;;;;;;;;5075358;28;20288;-64
2021/10/24 07:23:20;;;;;;;;;;;;;;;;;;5055361;28;19920;-64
2021/10/24 07:26:28;;;;;;;;;;;;;;;;;;5055415;28;19927;-64
2021/10/24 07:29:12;;;;;;;;;;;;;;;;;;5072313;28;19920;-64
2021/10/24 07:31:58;;;;;;;;;;;;;;;;;;5075088;28;19920;-64
2021/10/24 07:35:01;;;;;;;;;;;;;;;;;;5055478;28;19940;-64
2021/10/24 07:37:46;;;;;;;;;;;;;;;;;;5075083;28;20418;-64
2021/10/24 07:40:30;;;;;;;;;;;;;;;;;;5074183;28;19920;-64
2021/10/24 07:43:14;;;;;;;;;;;;;;;;;;5074926;28;19924;-64
2021/10/24 07:45:59;;;;;;;;;;;;;;;;;;5071032;28;19920;-64
2021/10/24 07:48:45;;;;;;;;;;;;;;;;;;5074694;28;20295;-63
2021/10/24 07:51:29;;;;;;;;;;;;;;;;;;5060618;28;19923;-64
2021/10/24 07:54:14;;;;;;;;;;;;;;;;;;5060525;28;19928;-64
2021/10/24 07:57:00;;;;;;;;;;;;;;;;;;5053987;28;19919;-64
2021/10/24 07:59:49;;;;;;;;;;;;;;;;;;5060355;28;19924;-64
2021/10/24 08:02:34;;;;;;;;;;;;;;;;;;5060356;28;19920;-64
2021/10/24 08:05:18;;;;;;;;;;;;;;;;;;5057380;28;20395;-64
2021/10/24 08:08:03;;;;;;;;;;;;;;;;;;5053724;28;19975;-64
2021/10/24 08:10:49;;;;;;;;;;;;;;;;;;5046280;28;19920;-64
2021/10/24 08:13:33;;;;;;;;;;;;;;;;;;5059954;28;19924;-64
2021/10/24 08:16:17;;;;;;;;;;;;;;;;;;5053667;28;19920;-64
2021/10/24 08:19:01;;;;;;;;;;;;;;;;;;5074292;28;19920;-64
2021/10/24 08:22:06;;;;;;;;;;;;;;;;;;5055886;28;19920;-64
2021/10/24 08:24:54;;;;;;;;;;;;;;;;;;5073473;28;19920;-64
2021/10/24 08:27:44;;;;;;;;;;;;;;;;;;5073982;28;20386;-64
2021/10/24 08:31:01;;;;;;;;;;;;;;;;;;5046129;28;19920;-64
2021/10/24 08:33:57;;;;;;;;;;;;;;;;;;5073922;28;19923;-64
2021/10/24 08:36:42;;;;;;;;;;;;;;;;;;5053996;28;19920;-64
2021/10/24 08:39:26;;;;;;;;;;;;;;;;;;5054029;28;19920;-69
2021/10/24 08:42:10;;;;;;;;;;;;;;;;;;5067098;28;19923;-69
2021/10/24 08:44:55;;;;;;;;;;;;;;;;;;5053675;28;19920;-69
2021/10/24 08:47:39;;;;;;;;;;;;;;;;;;5066911;28;19920;-68
2021/10/24 08:50:23;;;;;;;;;;;;;;;;;;5053517;28;20318;-68
2021/10/24 08:53:07;;;;;;;;;;;;;;;;;;5053548;28;19923;-68
2021/10/24 08:55:52;;;;;;;;;;;;;;;;;;5055936;28;19920;-67
2021/10/24 08:58:36;;;;;;;;;;;;;;;;;;5053705;28;19935;-67
2021/10/24 09:01:20;;;;;;;;;;;;;;;;;;5053602;28;19924;-68
2021/10/24 09:04:04;;;;;;;;;;;;;;;;;;5053506;28;19923;-67
2021/10/24 09:06:49;;;;;;;;;;;;;;;;;;5064469;22;20410;-67
2021/10/24 09:09:33;;;;;;;;;;;;;;;;;;5046874;28;19920;-67
2021/10/24 09:12:17;;;;;;;;;;;;;;;;;;5053140;28;19920;-67
2021/10/24 09:15:01;;;;;;;;;;;;;;;;;;5056731;28;20472;-67
2021/10/24 09:17:46;;;;;;;;;;;;;;;;;;5065061;28;19924;-68
2021/10/24 09:20:31;;;;;;;;;;;;;;;;;;5033157;28;20442;-67
2021/10/24 09:23:15;;;;;;;;;;;;;;;;;;5020318;28;19920;-67
2021/10/24 09:25:59;;;;;;;;;;;;;;;;;;5032761;28;19920;-67
2021/10/24 09:28:43;;;;;;;;;;;;;;;;;;5043428;28;19924;-65
2021/10/24 09:31:28;;;;;;;;;;;;;;;;;;5053004;28;20367;-65
2021/10/24 09:34:12;;;;;;;;;;;;;;;;;;5052793;28;19931;-65
2021/10/24 09:36:56;;;;;;;;;;;;;;;;;;5052214;28;19920;-65
2021/10/24 09:40:00;;;;;;;;;;;;;;;;;;5044372;28;19920;-67
2021/10/24 09:42:44;;;;;;;;;;;;;;;;;;5050561;28;19920;-68
2021/10/24 09:45:28;;;;;;;;;;;;;;;;;;5032676;28;19920;-66
2021/10/24 09:48:12;;;;;;;;;;;;;;;;;;5031771;28;19919;-66
2021/10/24 09:50:57;;;;;;;;;;;;;;;;;;5041282;28;19919;-65
2021/10/24 09:53:41;;;;;;;;;;;;;;;;;;5052565;28;19937;-63
2021/10/24 09:56:27;;;;;;;;;;;;;;;;;;5051469;28;19936;-65
2021/10/24 09:59:11;;;;;;;;;;;;;;;;;;5060039;28;20398;-64
2021/10/24 10:01:55;;;;;;;;;;;;;;;;;;5055744;28;19920;-63
2021/10/24 10:04:43;;;;;;;;;;;;;;;;;;5052125;28;19920;-64
2021/10/24 10:07:28;;;;;;;;;;;;;;;;;;5052052;28;19965;-64
2021/10/24 10:10:11;;;;;;;;;;;;;;;;;;5061118;28;19920;-63
2021/10/24 10:12:59;;;;;;;;;;;;;;;;;;5055246;28;20334;-63
2021/10/24 10:15:43;;;;;;;;;;;;;;;;;;5057069;28;19924;-63
2021/10/24 10:18:27;;;;;;;;;;;;;;;;;;5053164;28;19935;-63
2021/10/24 10:21:11;;;;;;;;;;;;;;;;;;5054506;28;20287;-64
2021/10/24 10:23:55;;;;;;;;;;;;;;;;;;5053302;28;19921;-63
2021/10/24 10:26:40;;;;;;;;;;;;;;;;;;5044507;28;19920;-63
2021/10/24 10:29:24;;;;;;;;;;;;;;;;;;5044452;28;20394;-62
2021/10/24 10:32:08;;;;;;;;;;;;;;;;;;5052075;28;19920;-63
2021/10/24 10:34:52;;;;;;;;;;;;;;;;;;5051980;28;19924;-63
2021/10/24 10:37:37;;;;;;;;;;;;;;;;;;5051066;28;19919;-62
2021/10/24 10:40:21;;;;;;;;;;;;;;;;;;5044907;28;20394;-62
2021/10/24 10:43:05;;;;;;;;;;;;;;;;;;5054091;28;19920;-63
2021/10/24 10:45:49;;;;;;;;;;;;;;;;;;5058432;28;19920;-63
2021/10/24 10:48:34;;;;;;;;;;;;;;;;;;5059322;28;19924;-63
2021/10/24 10:51:19;;;;;;;;;;;;;;;;;;5048152;28;19920;-63
2021/10/24 10:54:03;;;;;;;;;;;;;;;;;;5043188;28;19971;-62
2021/10/24 10:56:48;;;;;;;;;;;;;;;;;;5064685;28;19919;-63
2021/10/24 10:59:32;;;;;;;;;;;;;;;;;;5063890;28;19920;-63
2021/10/24 11:02:17;;;;;;;;;;;;;;;;;;5055307;28;20304;-62
2021/10/24 11:05:03;;;;;;;;;;;;;;;;;;5051516;28;19920;-62
2021/10/24 11:07:47;;;;;;;;;;;;;;;;;;5050905;28;20288;-62
2021/10/24 11:10:31;;;;;;;;;;;;;;;;;;5051787;28;20394;-63
2021/10/24 11:13:16;;;;;;;;;;;;;;;;;;5041799;28;19924;-63
2021/10/24 11:16:00;;;;;;;;;;;;;;;;;;5053668;28;19963;-62
2021/10/24 11:18:44;;;;;;;;;;;;;;;;;;5059292;28;19924;-62
2021/10/24 11:21:28;;;;;;;;;;;;;;;;;;5057484;28;19919;-62
2021/10/24 11:24:12;;;;;;;;;;;;;;;;;;5059580;28;19920;-63
2021/10/24 11:26:57;;;;;;;;;;;;;;;;;;5055548;28;20406;-62
2021/10/24 11:29:41;;;;;;;;;;;;;;;;;;5058224;28;19919;-63
2021/10/24 11:32:26;;;;;;;;;;;;;;;;;;5054093;28;19928;-62
2021/10/24 11:35:13;;;;;;;;;;;;;;;;;;5053464;28;19940;-62
2021/10/24 11:37:58;;;;;;;;;;;;;;;;;;5055167;28;19936;-62
2021/10/24 11:40:43;;;;;;;;;;;;;;;;;;5055182;28;19920;-62
2021/10/24 11:43:29;;;;;;;;;;;;;;;;;;5053736;28;19940;-63
2021/10/24 11:46:13;;;;;;;;;;;;;;;;;;5057053;28;19924;-62
2021/10/24 11:49:03;;;;;;;;;;;;;;;;;;5057552;28;19920;-63
2021/10/24 11:51:47;;;;;;;;;;;;;;;;;;5057787;28;19936;-62
2021/10/24 11:54:31;;;;;;;;;;;;;;;;;;5061376;28;19971;-63
2021/10/24 11:57:28;;;;;;;;;;;;;;;;;;5054422;28;19919;-62
2021/10/24 12:00:23;;;;;;;;;;;;;;;;;;5052981;28;19935;-62
2021/10/24 12:03:07;;;;;;;;;;;;;;;;;;5072655;28;20291;-62
2021/10/24 12:05:51;;;;;;;;;;;;;;;;;;5050151;28;19923;-63
2021/10/24 12:08:35;;;;;;;;;;;;;;;;;;5057019;28;19923;-63
2021/10/24 12:11:20;;;;;;;;;;;;;;;;;;5034415;28;20383;-63
2021/10/24 12:14:04;;;;;;;;;;;;;;;;;;5061695;28;20390;-62
2021/10/24 12:16:49;;;;;;;;;;;;;;;;;;5053543;28;19935;-63
2021/10/24 12:19:35;;;;;;;;;;;;;;;;;;5059412;28;19987;-63
2021/10/24 12:22:19;;;;;;;;;;;;;;;;;;5062481;28;19920;-62
2021/10/24 12:25:03;;;;;;;;;;;;;;;;;;5053088;28;19920;-64
2021/10/24 12:27:48;;;;;;;;;;;;;;;;;;5050941;28;20402;-63
2021/10/24 12:30:32;;;;;;;;;;;;;;;;;;5056283;28;19919;-62
2021/10/24 12:33:21;;;;;;;;;;;;;;;;;;5045202;28;19928;-62
2021/10/24 12:36:07;;;;;;;;;;;;;;;;;;5043830;28;19920;-63
2021/10/24 12:38:51;;;;;;;;;;;;;;;;;;5049284;28;20387;-63
2021/10/24 12:41:35;;;;;;;;;;;;;;;;;;5048912;28;20383;-63
2021/10/24 12:44:20;;;;;;;;;;;;;;;;;;5048868;28;19988;-63
2021/10/24 12:47:04;;;;;;;;;;;;;;;;;;5048505;28;19920;-63
2021/10/24 12:49:48;;;;;;;;;;;;;;;;;;5048423;28;19921;-63
2021/10/24 12:52:34;;;;;;;;;;;;;;;;;;5050156;28;19935;-63
2021/10/24 12:55:18;;;;;;;;;;;;;;;;;;5050971;28;19924;-63
2021/10/24 12:58:02;;;;;;;;;;;;;;;;;;5045265;28;19920;-63
2021/10/24 13:00:46;;;;;;;;;;;;;;;;;;5041438;28;19928;-63
2021/10/24 13:03:32;;;;;;;;;;;;;;;;;;5041420;28;20414;-63
2021/10/24 13:06:16;;;;;;;;;;;;;;;;;;5058831;28;19928;-62
2021/10/24 13:09:00;;;;;;;;;;;;;;;;;;5059205;28;19919;-63
2021/10/24 13:11:44;;;;;;;;;;;;;;;;;;5057540;28;19920;-63
2021/10/24 13:14:28;;;;;;;;;;;;;;;;;;5054413;28;19936;-63
2021/10/24 13:17:12;;;;;;;;;;;;;;;;;;5056899;28;19920;-62
2021/10/24 13:19:57;;;;;;;;;;;;;;;;;;5052879;28;20403;-63
2021/10/24 13:22:57;;;;;;;;;;;;;;;;;;5051911;28;20283;-63
2021/10/24 13:25:42;;;;;;;;;;;;;;;;;;5048088;28;19940;-63
2021/10/24 13:28:26;;;;;;;;;;;;;;;;;;5046744;28;19920;-64
2021/10/24 13:31:10;;;;;;;;;;;;;;;;;;5043589;28;20410;-62
2021/10/24 13:33:55;;;;;;;;;;;;;;;;;;5051527;28;19928;-63
2021/10/24 13:36:38;;;;;;;;;;;;;;;;;;5052224;28;19935;-62
2021/10/24 13:39:23;;;;;;;;;;;;;;;;;;5047795;28;19927;-63
2021/10/24 13:42:07;;;;;;;;;;;;;;;;;;5051007;28;19919;-63
2021/10/24 13:44:52;;;;;;;;;;;;;;;;;;5052664;28;19920;-63
2021/10/24 13:47:36;;;;;;;;;;;;;;;;;;5051583;28;20323;-63
2021/10/24 13:50:20;;;;;;;;;;;;;;;;;;5052506;28;20396;-63
2021/10/24 13:53:05;;;;;;;;;;;;;;;;;;5052521;28;19920;-64
2021/10/24 13:55:49;;;;;;;;;;;;;;;;;;5052222;28;19924;-64
2021/10/24 13:58:33;;;;;;;;;;;;;;;;;;5051010;28;20387;-63
2021/10/24 14:01:17;;;;;;;;;;;;;;;;;;5052195;28;19920;-63
2021/10/24 14:04:03;;;;;;;;;;;;;;;;;;5052290;28;19920;-63
2021/10/24 14:06:47;;;;;;;;;;;;;;;;;;5052055;28;19924;-64
2021/10/24 14:09:31;;;;;;;;;;;;;;;;;;5044794;28;19920;-63
2021/10/24 14:12:15;;;;;;;;;;;;;;;;;;5051556;28;20206;-63
2021/10/24 14:14:59;;;;;;;;;;;;;;;;;;5052095;28;19923;-63
2021/10/24 14:17:43;;;;;;;;;;;;;;;;;;5052209;28;19924;-63
2021/10/24 14:20:28;;;;;;;;;;;;;;;;;;5051016;28;19919;-63
2021/10/24 14:23:12;;;;;;;;;;;;;;;;;;5052251;28;19921;-63
2021/10/24 14:25:57;;;;;;;;;;;;;;;;;;5051806;28;19928;-64
2021/10/24 14:28:41;;;;;;;;;;;;;;;;;;5052072;28;19920;-63
2021/10/24 14:31:25;;;;;;;;;;;;;;;;;;5042300;28;20409;-63
2021/10/24 14:34:09;;;;;;;;;;;;;;;;;;5051964;28;19939;-63
2021/10/24 14:36:54;;;;;;;;;;;;;;;;;;5051807;28;19932;-62
2021/10/24 14:39:38;;;;;;;;;;;;;;;;;;5050468;28;19924;-62
2021/10/24 14:42:23;;;;;;;;;;;;;;;;;;5044117;28;19920;-62
2021/10/24 14:45:07;;;;;;;;;;;;;;;;;;5051946;28;19928;-63
2021/10/24 14:47:51;;;;;;;;;;;;;;;;;;5051897;28;20291;-63
2021/10/24 14:50:35;;;;;;;;;;;;;;;;;;5058136;28;19920;-63
2021/10/24 14:53:20;;;;;;;;;;;;;;;;;;5047497;28;20287;-63
2021/10/24 14:56:04;;;;;;;;;;;;;;;;;;5055778;28;19923;-62
2021/10/24 14:58:48;;;;;;;;;;;;;;;;;;5054474;28;19920;-63
2021/10/24 15:01:32;;;;;;;;;;;;;;;;;;5049220;28;19920;-63
2021/10/24 15:04:16;;;;;;;;;;;;;;;;;;5055590;28;19920;-63
2021/10/24 15:07:01;;;;;;;;;;;;;;;;;;5062495;22;20450;-61
2021/10/24 15:09:47;;;;;;;;;;;;;;;;;;5055539;28;19928;-61
2021/10/24 15:12:32;;;;;;;;;;;;;;;;;;5063065;28;19920;-61
2021/10/24 15:15:16;;;;;;;;;;;;;;;;;;5078622;28;19931;-61
2021/10/24 15:18:01;;;;;;;;;;;;;;;;;;5075578;28;19919;-61
2021/10/24 15:23:48;;;;;;;;;;;;;;;;;;5066870;28;19935;-61
2021/10/24 15:26:32;;;;;;;;;;;;;;;;;;5075288;28;19919;-61
2021/10/24 15:29:17;;;;;;;;;;;;;;;;;;5067278;28;19984;-61
2021/10/24 15:32:01;;;;;;;;;;;;;;;;;;5066151;28;19920;-61
2021/10/24 15:34:45;;;;;;;;;;;;;;;;;;5071319;28;20398;-61
2021/10/24 15:37:29;;;;;;;;;;;;;;;;;;5075332;28;19971;-61
2021/10/24 15:40:13;;;;;;;;;;;;;;;;;;5071199;28;19920;-61
2021/10/24 15:42:57;;;;;;;;;;;;;;;;;;5071169;28;19919;-61
2021/10/24 15:45:42;;;;;;;;;;;;;;;;;;5074875;28;19931;-61
2021/10/24 15:48:26;;;;;;;;;;;;;;;;;;5049515;28;19943;-61
2021/10/24 15:51:10;;;;;;;;;;;;;;;;;;5049665;28;19920;-61
2021/10/24 15:53:54;;;;;;;;;;;;;;;;;;5053222;28;19932;-61
2021/10/24 15:56:38;;;;;;;;;;;;;;;;;;5051204;28;19934;-60
2021/10/24 15:59:23;;;;;;;;;;;;;;;;;;5046449;28;20315;-61
2021/10/24 16:02:07;;;;;;;;;;;;;;;;;;5049733;28;19920;-61
2021/10/24 16:04:51;;;;;;;;;;;;;;;;;;5052497;28;19919;-61
2021/10/24 16:07:35;;;;;;;;;;;;;;;;;;5053094;28;19927;-60
2021/10/24 16:10:19;;;;;;;;;;;;;;;;;;5047783;28;19935;-61
2021/10/24 16:13:03;;;;;;;;;;;;;;;;;;5063970;28;19920;-60
2021/10/24 16:15:48;;;;;;;;;;;;;;;;;;5068412;28;19923;-68
2021/10/24 16:18:32;;;;;;;;;;;;;;;;;;5071185;28;20291;-62
2021/10/24 16:21:17;;;;;;;;;;;;;;;;;;5065505;28;19920;-65
2021/10/24 16:24:02;;;;;;;;;;;;;;;;;;5065429;28;19984;-62
2021/10/24 16:26:46;;;;;;;;;;;;;;;;;;5053821;28;19928;-63
2021/10/24 16:29:30;;;;;;;;;;;;;;;;;;5058522;28;19920;-64
2021/10/24 16:32:14;;;;;;;;;;;;;;;;;;5062483;28;20319;-65
2021/10/24 16:34:58;;;;;;;;;;;;;;;;;;5053219;28;19923;-63
2021/10/24 16:37:43;;;;;;;;;;;;;;;;;;5056250;28;19919;-61
2021/10/24 16:40:27;;;;;;;;;;;;;;;;;;5053998;28;19924;-60
2021/10/24 16:43:11;;;;;;;;;;;;;;;;;;5054590;28;19920;-57
2021/10/24 16:45:56;;;;;;;;;;;;;;;;;;5049755;28;19924;-59
2021/10/24 16:48:40;;;;;;;;;;;;;;;;;;5049380;28;19920;-59
2021/10/24 16:51:24;;;;;;;;;;;;;;;;;;5040476;28;19920;-60
2021/10/24 16:54:08;;;;;;;;;;;;;;;;;;5061777;28;19923;-60
2021/10/24 16:56:53;;;;;;;;;;;;;;;;;;5041941;28;19928;-60
2021/10/24 16:59:37;;;;;;;;;;;;;;;;;;5052286;28;19920;-58
2021/10/24 17:02:21;;;;;;;;;;;;;;;;;;5048291;28;19928;-58
2021/10/24 17:05:05;;;;;;;;;;;;;;;;;;5056690;28;19920;-57
2021/10/24 17:07:50;;;;;;;;;;;;;;;;;;5063542;28;19923;-58
2021/10/24 17:10:34;;;;;;;;;;;;;;;;;;5063376;28;19919;-58
2021/10/24 17:13:18;;;;;;;;;;;;;;;;;;5043694;28;19920;-59
2021/10/24 17:16:03;;;;;;;;;;;;;;;;;;5057933;28;19996;-56
2021/10/24 17:18:48;;;;;;;;;;;;;;;;;;5052033;28;19920;-56
2021/10/24 17:21:32;;;;;;;;;;;;;;;;;;5041857;28;19921;-58
2021/10/24 17:24:16;;;;;;;;;;;;;;;;;;5044849;28;19920;-58
2021/10/24 17:27:01;;;;;;;;;;;;;;;;;;5038379;28;19949;-58
2021/10/24 17:29:45;;;;;;;;;;;;;;;;;;5046531;28;19924;-58
2021/10/24 17:32:30;;;;;;;;;;;;;;;;;;5052267;28;19920;-60
2021/10/24 17:35:15;;;;;;;;;;;;;;;;;;5060387;28;20402;-59
2021/10/24 17:37:59;;;;;;;;;;;;;;;;;;5055759;28;19924;-59
2021/10/24 17:40:43;;;;;;;;;;;;;;;;;;5044860;28;19919;-58
2021/10/24 17:43:27;;;;;;;;;;;;;;;;;;5042100;28;19931;-59
2021/10/24 17:46:12;;;;;;;;;;;;;;;;;;5057691;28;20399;-57
2021/10/24 17:48:57;;;;;;;;;;;;;;;;;;5052566;28;19920;-58
2021/10/24 17:51:42;;;;;;;;;;;;;;;;;;5053110;28;19919;-59
2021/10/24 17:54:26;;;;;;;;;;;;;;;;;;5055504;28;19939;-60
2021/10/24 17:57:10;;;;;;;;;;;;;;;;;;5061623;28;19936;-59
2021/10/24 17:59:55;;;;;;;;;;;;;;;;;;5052605;28;19920;-59
2021/10/24 18:02:39;;;;;;;;;;;;;;;;;;5045949;28;19921;-58
2021/10/24 18:05:24;;;;;;;;;;;;;;;;;;5031992;28;19920;-59
2021/10/24 18:08:08;;;;;;;;;;;;;;;;;;5037129;28;19931;-59
2021/10/24 18:10:52;;;;;;;;;;;;;;;;;;5064152;28;19920;-59
2021/10/24 18:13:39;;;;;;;;;;;;;;;;;;5046959;28;20201;-58
2021/10/24 18:16:23;;;;;;;;;;;;;;;;;;5044820;28;20402;-58
2021/10/24 18:19:07;;;;;;;;;;;;;;;;;;5056251;28;19920;-59
2021/10/24 18:21:52;;;;;;;;;;;;;;;;;;5060457;28;19980;-58
2021/10/24 18:24:36;;;;;;;;;;;;;;;;;;5036807;28;19920;-58
2021/10/24 18:27:21;;;;;;;;;;;;;;;;;;5031334;28;19919;-58
2021/10/24 18:30:05;;;;;;;;;;;;;;;;;;5047300;28;20283;-59
2021/10/24 18:32:50;;;;;;;;;;;;;;;;;;5051047;28;19920;-59
2021/10/24 18:35:34;;;;;;;;;;;;;;;;;;5046767;28;19928;-59
2021/10/24 18:38:18;;;;;;;;;;;;;;;;;;5042494;28;19928;-59
2021/10/24 18:41:02;;;;;;;;;;;;;;;;;;5052652;28;19920;-59
2021/10/24 18:43:46;;;;;;;;;;;;;;;;;;5046822;28;19919;-59
2021/10/24 18:46:30;;;;;;;;;;;;;;;;;;5050551;28;19919;-59
2021/10/24 18:49:15;;;;;;;;;;;;;;;;;;5058787;28;19931;-61
2021/10/24 18:51:59;;;;;;;;;;;;;;;;;;5051504;28;19936;-58
2021/10/24 18:54:43;;;;;;;;;;;;;;;;;;5057498;28;19927;-59